Time;durP1;ratioP1;P1;durP2;ratioP2;P2;SDS_P1;SDS_P2;PMS_P1;PMS_P2;Temp;Humidity;BMP_temperature;BMP_pressure;BME280_temperature;BME280_humidity;BME280_pressure;Samples;Min_cycle;Max_cycle;Signal;HPM_P1;HPM_P2
2021/10/08 00:02:26;;;;;;;46.47;27.33;;;10.10;99.90;;;;;;5072793;28;37257;-75
2021/10/08 00:04:52;;;;;;;58.90;31.33;;;10.10;99.90;;;;;;5077975;28;39021;-75
2021/10/08 00:07:18;;;;;;;40.87;26.27;;;10.10;99.90;;;;;;5069482;28;39433;-75
2021/10/08 00:09:44;;;;;;;49.53;28.73;;;10.00;99.90;;;;;;5059537;28;39370;-75
2021/10/08 00:12:10;;;;;;;46.20;27.77;;;10.00;99.90;;;;;;5073122;28;39358;-76
2021/10/08 00:14:36;;;;;;;43.77;27.97;;;10.00;99.90;;;;;;5076407;28;39043;-76
2021/10/08 00:17:04;;;;;;;45.90;27.40;;;10.00;99.90;;;;;;5075971;28;37874;-75
2021/10/08 00:19:30;;;;;;;44.30;27.40;;;10.00;99.90;;;;;;5072343;28;38741;-75
2021/10/08 00:21:56;;;;;;;48.90;30.23;;;10.00;99.90;;;;;;5077070;28;37149;-75
2021/10/08 00:24:22;;;;;;;54.97;31.80;;;9.90;99.90;;;;;;5074456;28;38715;-75
2021/10/08 00:26:48;;;;;;;59.03;32.80;;;9.90;99.90;;;;;;5073971;28;39032;-75
2021/10/08 00:29:14;;;;;;;50.17;29.77;;;9.90;99.90;;;;;;5052420;28;36726;-75
2021/10/08 00:31:40;;;;;;;53.30;29.80;;;9.90;99.90;;;;;;5053613;28;38044;-75
2021/10/08 00:34:06;;;;;;;56.63;32.53;;;9.90;99.90;;;;;;5058062;28;40598;-75
2021/10/08 00:36:32;;;;;;;54.77;32.47;;;9.80;99.90;;;;;;5073024;28;38288;-75
2021/10/08 00:38:59;;;;;;;49.80;30.07;;;9.80;99.90;;;;;;5059572;28;37097;-75
2021/10/08 00:41:25;;;;;;;49.40;29.70;;;9.80;99.90;;;;;;5055475;28;37769;-75
2021/10/08 00:43:53;;;;;;;46.63;28.33;;;9.80;99.90;;;;;;5074277;28;38694;-74
2021/10/08 00:46:20;;;;;;;45.37;28.67;;;9.80;99.90;;;;;;5055447;28;38159;-75
2021/10/08 00:48:54;;;;;;;56.97;29.97;;;9.80;99.90;;;;;;5055168;28;38952;-75
2021/10/08 00:51:23;;;;;;;57.83;31.53;;;9.70;99.90;;;;;;5072885;28;37314;-75
2021/10/08 00:53:49;;;;;;;53.00;30.30;;;9.70;99.90;;;;;;5054136;28;41701;-73
2021/10/08 00:56:20;;;;;;;46.93;28.77;;;9.70;99.90;;;;;;5057494;28;38683;-75
2021/10/08 00:58:46;;;;;;;58.13;32.30;;;9.70;99.90;;;;;;5073592;28;39612;-75
2021/10/08 01:01:16;;;;;;;43.60;28.80;;;9.70;99.90;;;;;;5078290;28;37386;-75
2021/10/08 01:03:42;;;;;;;46.63;29.47;;;9.70;99.90;;;;;;5073987;28;37358;-75
2021/10/08 01:06:10;;;;;;;54.00;31.27;;;9.70;99.90;;;;;;5055966;28;37464;-75
2021/10/08 01:08:36;;;;;;;60.23;32.03;;;9.60;99.90;;;;;;5054744;28;38046;-74
2021/10/08 01:11:02;;;;;;;46.50;29.57;;;9.60;99.90;;;;;;5074544;28;37223;-75
2021/10/08 01:13:28;;;;;;;67.63;34.97;;;9.60;99.90;;;;;;5076079;28;38992;-75
2021/10/08 01:15:55;;;;;;;72.17;36.80;;;9.60;99.90;;;;;;5053625;28;39732;-74
2021/10/08 01:18:25;;;;;;;65.03;35.03;;;9.60;99.90;;;;;;5074150;28;38197;-74
2021/10/08 01:20:52;;;;;;;51.30;30.00;;;9.60;99.90;;;;;;5074940;28;36866;-75
2021/10/08 01:23:18;;;;;;;59.40;33.67;;;9.60;99.90;;;;;;5071814;28;40275;-75
2021/10/08 01:25:44;;;;;;;53.27;32.07;;;9.50;99.90;;;;;;5074906;28;38294;-75
2021/10/08 01:28:10;;;;;;;64.43;35.47;;;9.50;99.90;;;;;;5054660;28;38289;-75
2021/10/08 01:30:36;;;;;;;54.43;32.63;;;9.50;99.90;;;;;;5049484;28;38417;-75
2021/10/08 01:33:04;;;;;;;53.77;32.53;;;9.50;99.90;;;;;;5073103;28;38226;-74
2021/10/08 01:35:30;;;;;;;56.60;32.83;;;9.50;99.90;;;;;;5074003;28;38646;-75
2021/10/08 01:37:56;;;;;;;59.77;32.93;;;9.40;99.90;;;;;;5069396;28;37790;-75
2021/10/08 01:40:23;;;;;;;69.80;36.80;;;9.40;99.90;;;;;;5073760;28;37038;-75
2021/10/08 01:42:49;;;;;;;55.37;32.53;;;9.40;99.90;;;;;;5057786;28;38918;-75
2021/10/08 01:45:15;;;;;;;61.03;33.37;;;9.40;99.90;;;;;;5073650;28;39367;-75
2021/10/08 01:47:42;;;;;;;62.97;34.93;;;9.40;99.90;;;;;;5053216;28;38492;-75
2021/10/08 01:50:09;;;;;;;51.83;30.67;;;9.40;99.90;;;;;;5071959;28;37065;-75
2021/10/08 01:52:35;;;;;;;55.60;32.87;;;9.40;99.90;;;;;;5054586;28;39348;-75
2021/10/08 01:55:01;;;;;;;55.90;32.90;;;9.30;99.90;;;;;;5066094;28;38860;-75
2021/10/08 01:57:27;;;;;;;72.87;37.73;;;9.30;99.90;;;;;;5052639;28;39319;-74
2021/10/08 01:59:53;;;;;;;51.50;30.63;;;9.30;99.90;;;;;;5052317;28;38349;-75
2021/10/08 02:02:20;;;;;;;55.10;32.63;;;9.30;99.90;;;;;;5051715;28;39760;-74
2021/10/08 02:04:47;;;;;;;54.40;32.57;;;9.30;99.90;;;;;;5073452;28;39425;-74
2021/10/08 02:07:14;;;;;;;61.10;35.97;;;9.30;99.90;;;;;;5075667;28;37933;-75
2021/10/08 02:09:41;;;;;;;70.97;37.30;;;9.20;99.90;;;;;;5060786;28;37336;-75
2021/10/08 02:12:07;;;;;;;67.97;36.20;;;9.20;99.90;;;;;;5057723;28;40065;-75
2021/10/08 02:14:33;;;;;;;70.10;37.70;;;9.20;99.90;;;;;;5076321;28;38861;-74
2021/10/08 02:16:59;;;;;;;54.33;32.67;;;9.20;99.90;;;;;;5077155;28;37994;-74
2021/10/08 02:19:25;;;;;;;67.97;36.73;;;9.20;99.90;;;;;;5076086;28;37427;-74
2021/10/08 02:21:51;;;;;;;60.07;35.27;;;9.20;99.90;;;;;;5057445;28;39475;-74
2021/10/08 02:24:17;;;;;;;64.53;37.07;;;9.20;99.90;;;;;;5055923;28;40351;-74
2021/10/08 02:26:43;;;;;;;75.53;40.80;;;9.30;99.90;;;;;;5075902;28;39427;-74
2021/10/08 02:29:09;;;;;;;71.47;40.17;;;9.40;99.90;;;;;;5058715;28;37272;-74
2021/10/08 02:31:36;;;;;;;135.13;44.43;;;9.50;99.90;;;;;;5061362;28;39001;-74
2021/10/08 02:34:02;;;;;;;63.87;40.23;;;9.50;99.90;;;;;;5053099;28;38723;-75
2021/10/08 02:36:29;;;;;;;65.40;38.50;;;9.60;99.90;;;;;;5052477;28;39532;-74
2021/10/08 02:38:55;;;;;;;76.33;41.43;;;9.60;99.90;;;;;;5075709;28;37487;-74
2021/10/08 02:41:21;;;;;;;49.80;34.53;;;9.60;99.90;;;;;;5073970;28;38825;-74
2021/10/08 02:43:48;;;;;;;288.37;54.10;;;9.60;99.90;;;;;;5058930;28;40241;-74
2021/10/08 02:46:14;;;;;;;60.20;34.67;;;9.60;99.90;;;;;;5057838;28;39867;-74
2021/10/08 02:48:40;;;;;;;64.47;35.73;;;9.60;99.90;;;;;;5074219;28;37219;-73
2021/10/08 02:51:06;;;;;;;69.00;36.17;;;9.60;99.90;;;;;;5076154;28;39243;-72
2021/10/08 02:53:33;;;;;;;55.73;33.70;;;9.60;99.90;;;;;;5058079;28;39158;-74
2021/10/08 02:55:59;;;;;;;42.17;32.13;;;9.60;99.90;;;;;;5071081;28;38103;-74
2021/10/08 02:58:25;;;;;;;53.95;33.28;;;9.50;99.90;;;;;;5074326;28;35908;-74
2021/10/08 03:00:51;;;;;;;87.50;34.20;;;9.50;99.90;;;;;;5059263;28;40672;-74
2021/10/08 03:03:17;;;;;;;41.90;30.43;;;9.40;99.90;;;;;;5057704;28;38359;-75
2021/10/08 03:05:44;;;;;;;44.10;29.80;;;9.40;99.90;;;;;;5067821;28;39377;-72
2021/10/08 03:08:10;;;;;;;37.08;27.95;;;9.50;99.90;;;;;;5068889;28;38759;-74
2021/10/08 03:10:36;;;;;;;85.17;36.90;;;9.50;99.90;;;;;;5056427;28;37804;-74
2021/10/08 03:13:02;;;;;;;42.17;31.30;;;9.50;99.90;;;;;;5058673;28;39298;-75
2021/10/08 03:15:29;;;;;;;54.43;33.83;;;9.50;99.90;;;;;;5052210;28;38075;-74
2021/10/08 03:17:55;;;;;;;40.77;28.67;;;9.50;99.90;;;;;;5058377;28;38418;-74
2021/10/08 03:20:21;;;;;;;41.10;28.63;;;9.50;99.90;;;;;;5075048;28;38903;-74
2021/10/08 03:22:47;;;;;;;50.00;32.67;;;9.60;99.90;;;;;;5056801;28;38569;-74
2021/10/08 03:25:14;;;;;;;39.43;30.17;;;9.50;99.90;;;;;;5071587;28;37774;-74
2021/10/08 03:27:41;;;;;;;35.93;28.57;;;9.50;99.90;;;;;;5074412;28;37087;-74
2021/10/08 03:30:10;;;;;;;39.83;29.83;;;9.50;99.90;;;;;;5051359;28;40806;-75
2021/10/08 03:32:36;;;;;;;60.70;36.37;;;9.40;99.90;;;;;;5059307;28;38783;-74
2021/10/08 03:35:03;;;;;;;82.03;36.30;;;9.50;99.90;;;;;;5054042;28;38197;-74
2021/10/08 03:37:51;;;;;;;43.97;30.23;;;9.60;99.90;;;;;;5070551;28;47320;-75
2021/10/08 03:40:25;;;;;;;38.77;26.40;;;9.50;99.90;;;;;;5073512;28;39487;-73
2021/10/08 03:42:51;;;;;;;35.50;28.23;;;9.40;99.90;;;;;;5051719;28;38582;-74
2021/10/08 03:45:18;;;;;;;44.33;27.03;;;9.30;99.90;;;;;;5071128;28;38277;-74
2021/10/08 03:50:23;;;;;;;36.30;26.50;;;9.40;99.90;;;;;;5071029;28;40734;-74
2021/10/08 03:52:49;;;;;;;36.23;26.97;;;9.40;99.90;;;;;;5054247;28;37667;-74
2021/10/08 03:55:15;;;;;;;44.67;30.00;;;9.50;99.90;;;;;;5059152;28;36752;-74
2021/10/08 03:57:41;;;;;;;41.40;28.60;;;9.50;99.90;;;;;;5072941;28;37431;-74
2021/10/08 04:00:08;;;;;;;50.33;30.97;;;9.50;99.90;;;;;;5073185;28;39222;-75
2021/10/08 04:02:34;;;;;;;36.23;27.77;;;9.40;99.90;;;;;;5073671;28;46290;-74
2021/10/08 04:05:00;;;;;;;32.93;25.43;;;9.50;99.90;;;;;;5052527;28;37293;-74
2021/10/08 04:07:26;;;;;;;54.73;32.50;;;9.50;99.90;;;;;;5072933;28;36049;-74
2021/10/08 04:09:52;;;;;;;45.33;28.90;;;9.40;99.90;;;;;;5071985;28;38559;-74
2021/10/08 04:12:18;;;;;;;50.17;27.37;;;9.50;99.90;;;;;;5076549;28;38257;-74
2021/10/08 04:14:44;;;;;;;39.53;29.07;;;9.30;99.90;;;;;;5074551;28;37647;-74
2021/10/08 04:17:10;;;;;;;33.70;26.10;;;9.20;99.90;;;;;;5073147;27;37878;-74
2021/10/08 04:19:36;;;;;;;69.70;31.17;;;9.20;99.90;;;;;;5055674;28;37465;-74
2021/10/08 04:22:03;;;;;;;46.00;30.60;;;9.30;99.90;;;;;;5072289;28;38876;-74
2021/10/08 04:24:29;;;;;;;36.80;26.90;;;9.30;99.90;;;;;;5074027;28;37837;-74
2021/10/08 04:26:55;;;;;;;51.17;28.67;;;9.40;99.90;;;;;;5057361;28;37251;-74
2021/10/08 04:29:21;;;;;;;37.17;27.20;;;9.40;99.90;;;;;;5052537;28;37746;-74
2021/10/08 04:31:47;;;;;;;59.57;32.00;;;9.30;99.90;;;;;;5057234;28;37346;-74
2021/10/08 04:34:13;;;;;;;40.43;29.97;;;9.40;99.90;;;;;;5060151;28;38257;-72
2021/10/08 04:36:40;;;;;;;37.13;27.93;;;9.30;99.90;;;;;;5057242;28;36601;-74
2021/10/08 04:39:07;;;;;;;35.83;27.17;;;9.40;99.90;;;;;;5071754;28;38945;-74
2021/10/08 04:41:33;;;;;;;37.00;28.10;;;9.50;99.90;;;;;;5070720;28;36756;-74
2021/10/08 04:43:59;;;;;;;51.40;30.57;;;9.50;99.90;;;;;;5055906;28;37065;-74
2021/10/08 04:46:25;;;;;;;54.00;33.27;;;9.50;99.90;;;;;;5054340;28;36355;-74
2021/10/08 04:48:51;;;;;;;45.67;29.33;;;9.40;99.90;;;;;;5056118;28;37927;-74
2021/10/08 04:51:17;;;;;;;70.37;34.77;;;9.50;99.90;;;;;;5073713;28;38193;-74
2021/10/08 04:53:43;;;;;;;37.57;28.23;;;9.50;99.90;;;;;;5052933;28;38147;-74
2021/10/08 04:56:09;;;;;;;38.77;26.17;;;9.50;99.90;;;;;;5054489;28;36287;-74
2021/10/08 04:58:35;;;;;;;57.83;32.87;;;9.50;99.90;;;;;;5073259;28;40455;-74
2021/10/08 05:01:02;;;;;;;35.40;26.43;;;9.50;99.90;;;;;;5051309;28;38994;-74
2021/10/08 05:03:28;;;;;;;39.57;27.97;;;9.40;99.90;;;;;;5072541;27;38883;-74
2021/10/08 05:05:55;;;;;;;27.20;23.43;;;9.50;99.90;;;;;;5070928;28;38403;-74
2021/10/08 05:08:21;;;;;;;25.70;22.60;;;9.40;99.90;;;;;;5052587;28;37537;-73
2021/10/08 05:10:48;;;;;;;25.60;22.50;;;9.20;99.90;;;;;;5070544;28;39498;-73
2021/10/08 05:13:15;;;;;;;30.97;24.67;;;9.20;99.90;;;;;;5052857;28;37381;-73
2021/10/08 05:15:41;;;;;;;29.83;23.40;;;9.10;99.90;;;;;;5073162;28;37599;-74
2021/10/08 05:18:08;;;;;;;30.53;23.03;;;9.20;99.90;;;;;;5075509;28;38663;-74
2021/10/08 05:20:34;;;;;;;51.27;23.60;;;9.20;99.90;;;;;;5050669;28;37062;-74
2021/10/08 05:23:01;;;;;;;23.90;21.30;;;9.10;99.90;;;;;;5053766;28;36740;-75
2021/10/08 05:25:27;;;;;;;24.73;21.80;;;9.10;99.90;;;;;;5055634;28;37888;-73
2021/10/08 05:27:53;;;;;;;35.20;22.27;;;9.00;99.90;;;;;;5054762;28;37504;-73
2021/10/08 05:30:19;;;;;;;25.87;21.47;;;9.10;99.90;;;;;;5050209;28;37069;-74
2021/10/08 05:32:45;;;;;;;23.70;20.33;;;9.10;99.90;;;;;;5052304;28;37498;-74
2021/10/08 05:35:12;;;;;;;34.37;21.57;;;8.90;99.90;;;;;;5061658;28;35700;-74
2021/10/08 05:37:38;;;;;;;27.00;20.40;;;9.00;99.90;;;;;;5061129;28;38646;-74
2021/10/08 05:40:06;;;;;;;38.50;23.20;;;9.00;99.90;;;;;;5056371;28;40149;-74
2021/10/08 05:42:33;;;;;;;29.47;23.33;;;9.10;99.90;;;;;;5053649;28;48446;-74
2021/10/08 05:44:59;;;;;;;28.47;23.30;;;9.20;99.90;;;;;;5059236;28;37832;-74
2021/10/08 05:47:26;;;;;;;25.30;20.97;;;9.20;99.90;;;;;;5060639;28;39894;-74
2021/10/08 05:49:52;;;;;;;32.27;21.33;;;9.20;99.90;;;;;;5061777;28;38387;-73
2021/10/08 05:52:19;;;;;;;37.20;21.93;;;9.30;99.90;;;;;;5051133;28;39052;-73
2021/10/08 05:54:45;;;;;;;27.63;20.73;;;9.30;99.90;;;;;;5058705;28;37098;-73
2021/10/08 05:57:11;;;;;;;29.67;23.67;;;9.10;99.90;;;;;;5051635;28;39831;-74
2021/10/08 05:59:39;;;;;;;31.47;22.63;;;9.10;99.90;;;;;;5058046;28;38292;-74
2021/10/08 06:02:05;;;;;;;60.73;28.83;;;9.20;99.90;;;;;;5056766;28;39388;-74
2021/10/08 06:04:31;;;;;;;33.10;23.20;;;9.20;99.90;;;;;;5053565;28;37591;-73
2021/10/08 06:06:57;;;;;;;31.17;23.73;;;9.20;99.90;;;;;;5065068;28;39444;-73
2021/10/08 06:09:23;;;;;;;47.20;24.10;;;9.30;99.90;;;;;;5058313;28;39746;-73
2021/10/08 06:11:49;;;;;;;26.57;20.47;;;9.30;99.90;;;;;;5057801;28;39324;-73
2021/10/08 06:14:15;;;;;;;85.47;30.90;;;9.20;99.90;;;;;;5053616;28;38066;-73
2021/10/08 06:16:41;;;;;;;25.90;21.43;;;9.10;99.90;;;;;;5055683;28;40284;-72
2021/10/08 06:19:07;;;;;;;24.33;20.27;;;9.10;99.90;;;;;;5063392;28;38567;-73
2021/10/08 06:21:33;;;;;;;21.63;18.60;;;9.10;99.90;;;;;;5082715;28;38837;-73
2021/10/08 06:24:00;;;;;;;38.60;21.37;;;9.10;99.90;;;;;;5077084;28;37827;-73
2021/10/08 06:26:26;;;;;;;20.17;18.00;;;9.20;99.90;;;;;;5080571;28;38879;-73
2021/10/08 06:28:52;;;;;;;24.43;17.87;;;9.10;99.90;;;;;;5084481;28;38540;-73
2021/10/08 06:31:18;;;;;;;20.97;17.70;;;8.90;99.90;;;;;;5070250;28;38005;-73
2021/10/08 06:33:44;;;;;;;25.03;16.97;;;8.90;99.90;;;;;;5071584;28;38417;-73
2021/10/08 06:36:10;;;;;;;21.83;16.37;;;8.90;99.90;;;;;;5084709;28;38580;-73
2021/10/08 06:38:36;;;;;;;19.80;17.73;;;8.80;99.90;;;;;;5056956;28;39758;-73
2021/10/08 06:41:03;;;;;;;21.50;18.77;;;8.90;99.90;;;;;;5071143;28;38344;-73
2021/10/08 06:43:29;;;;;;;23.20;17.43;;;8.90;99.90;;;;;;5054777;28;38479;-72
2021/10/08 06:45:55;;;;;;;21.97;18.00;;;8.90;99.90;;;;;;5080911;28;39097;-73
2021/10/08 06:48:21;;;;;;;24.37;19.83;;;8.90;99.90;;;;;;5083338;28;38049;-73
2021/10/08 06:50:47;;;;;;;35.37;21.83;;;8.90;99.90;;;;;;5075832;28;38184;-74
2021/10/08 06:53:13;;;;;;;44.33;22.83;;;8.90;99.90;;;;;;5082293;28;38428;-73
2021/10/08 06:55:40;;;;;;;25.40;19.07;;;9.10;99.90;;;;;;5068731;28;39311;-73
2021/10/08 06:58:06;;;;;;;23.63;19.33;;;9.00;99.90;;;;;;5082822;28;38500;-74
2021/10/08 07:00:32;;;;;;;40.37;19.63;;;9.00;99.90;;;;;;5063524;28;39207;-73
2021/10/08 07:02:58;;;;;;;106.73;29.37;;;9.10;99.90;;;;;;5079653;28;37453;-73
2021/10/08 07:05:25;;;;;;;48.10;25.40;;;9.10;99.90;;;;;;5088559;28;38979;-73
2021/10/08 07:07:52;;;;;;;37.23;23.50;;;9.10;99.90;;;;;;5057401;28;39752;-74
2021/10/08 07:10:19;;;;;;;22.77;19.23;;;9.20;99.90;;;;;;5079078;28;38033;-73
2021/10/08 07:12:45;;;;;;;35.10;22.90;;;9.30;99.90;;;;;;5069276;28;37450;-74
2021/10/08 07:15:17;;;;;;;46.03;20.47;;;9.30;99.90;;;;;;5059223;28;39526;-73
2021/10/08 07:17:47;;;;;;;23.10;18.80;;;9.40;99.90;;;;;;5076146;28;40165;-73
2021/10/08 07:20:15;;;;;;;39.00;19.90;;;9.40;99.90;;;;;;5065221;28;39096;-73
2021/10/08 07:22:41;;;;;;;26.97;19.37;;;9.40;99.90;;;;;;5067254;28;39065;-73
2021/10/08 07:25:08;;;;;;;29.23;18.97;;;9.40;99.90;;;;;;5077156;28;38524;-74
2021/10/08 07:27:36;;;;;;;29.10;19.40;;;9.20;99.90;;;;;;5072059;28;39021;-74
2021/10/08 07:30:04;;;;;;;21.90;17.90;;;9.20;99.90;;;;;;5067085;28;37514;-74
2021/10/08 07:32:31;;;;;;;25.83;19.90;;;9.20;99.90;;;;;;5060762;28;38633;-74
2021/10/08 07:34:57;;;;;;;24.60;19.03;;;9.30;99.90;;;;;;5059345;28;40319;-73
2021/10/08 07:37:24;;;;;;;26.30;20.43;;;9.60;99.90;;;;;;5073059;28;38420;-74
2021/10/08 07:39:50;;;;;;;27.90;21.27;;;9.60;99.90;;;;;;5070447;28;36482;-74
2021/10/08 07:42:16;;;;;;;21.93;19.07;;;9.70;99.90;;;;;;5086641;28;37474;-74
2021/10/08 07:44:42;;;;;;;23.20;19.43;;;9.70;99.90;;;;;;5081646;28;38855;-73
2021/10/08 07:47:09;;;;;;;56.50;23.53;;;9.70;99.90;;;;;;5064368;28;37407;-73
2021/10/08 07:49:35;;;;;;;59.03;27.80;;;9.80;99.90;;;;;;5086785;28;38261;-73
2021/10/08 07:52:01;;;;;;;27.63;20.57;;;10.00;99.90;;;;;;5060111;28;38566;-73
2021/10/08 07:54:27;;;;;;;30.88;22.30;;;10.10;99.90;;;;;;5076588;28;38246;-72
2021/10/08 07:56:53;;;;;;;23.90;20.50;;;10.30;99.90;;;;;;5081194;28;38182;-73
2021/10/08 07:59:19;;;;;;;40.28;24.77;;;10.30;99.90;;;;;;5078881;28;39536;-73
2021/10/08 08:01:46;;;;;;;32.78;23.15;;;10.30;99.90;;;;;;5067756;28;38558;-72
2021/10/08 08:04:12;;;;;;;32.10;21.20;;;10.30;99.90;;;;;;5067911;28;39128;-72
2021/10/08 08:06:38;;;;;;;25.35;19.35;;;10.30;99.90;;;;;;5063637;28;39568;-72
2021/10/08 08:09:04;;;;;;;103.90;27.23;;;10.20;99.90;;;;;;5085895;28;38197;-73
2021/10/08 08:11:30;;;;;;;44.63;26.52;;;10.10;99.90;;;;;;5081911;28;37467;-74
2021/10/08 08:13:56;;;;;;;49.50;24.93;;;10.10;99.90;;;;;;5047879;28;40008;-73
2021/10/08 08:16:23;;;;;;;49.67;29.52;;;10.30;99.90;;;;;;5082503;28;38222;-73
2021/10/08 08:18:49;;;;;;;44.30;29.55;;;10.50;99.90;;;;;;5062441;28;39959;-72
2021/10/08 08:21:15;;;;;;;40.97;26.05;;;10.70;99.90;;;;;;5082398;28;37447;-73
2021/10/08 08:23:42;;;;;;;51.60;28.95;;;10.70;99.90;;;;;;5066921;28;39598;-73
2021/10/08 08:26:08;;;;;;;37.85;27.00;;;10.80;99.90;;;;;;5083738;28;38824;-73
2021/10/08 08:28:34;;;;;;;43.00;28.52;;;10.70;99.90;;;;;;5076007;28;38673;-73
2021/10/08 08:31:00;;;;;;;43.10;27.27;;;10.80;99.90;;;;;;5072203;28;38956;-72
2021/10/08 08:33:26;;;;;;;41.42;28.20;;;10.80;99.90;;;;;;5058465;28;40889;-73
2021/10/08 08:35:53;;;;;;;44.97;30.25;;;11.00;99.90;;;;;;5084954;28;37744;-73
2021/10/08 08:38:19;;;;;;;43.13;28.10;;;11.10;99.90;;;;;;5084994;28;38159;-73
2021/10/08 08:40:45;;;;;;;47.45;29.30;;;11.20;99.90;;;;;;5065516;28;38489;-73
2021/10/08 08:43:11;;;;;;;52.40;30.92;;;11.40;99.90;;;;;;5070090;28;39663;-73
2021/10/08 08:45:37;;;;;;;48.55;30.45;;;11.40;99.90;;;;;;5058497;28;38215;-73
2021/10/08 08:48:06;;;;;;;42.10;28.17;;;11.40;99.90;;;;;;5068543;28;38065;-73
2021/10/08 08:50:36;;;;;;;48.10;31.25;;;11.40;99.90;;;;;;5058826;28;38560;-73
2021/10/08 08:53:03;;;;;;;46.38;31.65;;;11.30;99.90;;;;;;5054007;28;39330;-73
2021/10/08 08:55:29;;;;;;;47.35;31.45;;;11.50;99.90;;;;;;5077830;28;39587;-72
2021/10/08 08:57:55;;;;;;;55.33;34.00;;;11.50;99.90;;;;;;5062966;28;38917;-73
2021/10/08 09:00:24;;;;;;;51.60;32.17;;;11.70;99.90;;;;;;5076603;28;20153;-73
2021/10/08 09:02:58;;;;;;;47.00;31.30;;;11.90;99.90;;;;;;5057830;28;39271;-71
2021/10/08 09:05:29;;;;;;;52.38;33.88;;;12.00;99.90;;;;;;5064883;28;39167;-72
2021/10/08 09:07:57;;;;;;;46.90;30.75;;;11.90;99.90;;;;;;5074007;28;37994;-71
2021/10/08 09:10:26;;;;;;;53.45;34.13;;;11.90;99.90;;;;;;5073645;28;37061;-72
2021/10/08 09:12:56;;;;;;;51.92;33.35;;;12.00;99.90;;;;;;5070098;28;38659;-72
2021/10/08 09:15:25;;;;;;;49.67;32.63;;;12.30;99.90;;;;;;5079413;28;38323;-72
2021/10/08 09:18:09;;;;;;;50.10;32.70;;;12.30;99.90;;;;;;5067134;28;38424;-72
2021/10/08 09:20:36;;;;;;;50.55;32.30;;;12.30;99.90;;;;;;5065159;28;47373;-72
2021/10/08 09:23:03;;;;;;;51.83;33.78;;;12.40;99.90;;;;;;5077171;28;38601;-72
2021/10/08 09:25:34;;;;;;;57.38;34.60;;;12.70;99.90;;;;;;5086714;28;38518;-72
2021/10/08 09:28:09;;;;;;;53.17;34.50;;;12.90;99.90;;;;;;5078283;28;39471;-71
2021/10/08 09:30:40;;;;;;;59.30;36.80;;;12.60;99.90;;;;;;5072922;28;47608;-72
2021/10/08 09:33:19;;;;;;;55.45;34.83;;;12.70;99.90;;;;;;5075984;28;40060;-72
2021/10/08 09:35:48;;;;;;;58.45;36.38;;;12.80;99.90;;;;;;5077146;28;38762;-71
2021/10/08 09:38:16;;;;;;;53.25;35.38;;;12.90;99.90;;;;;;5069626;28;39923;-72
2021/10/08 09:40:57;;;;;;;52.47;34.63;;;12.60;99.90;;;;;;5071778;28;36594;-72
2021/10/08 09:43:23;;;;;;;57.03;36.83;;;12.60;99.90;;;;;;5065161;28;40367;-72
2021/10/08 09:45:51;;;;;;;63.85;39.92;;;12.70;99.90;;;;;;5082115;28;38419;-72
2021/10/08 09:48:42;;;;;;;60.35;37.08;;;13.00;99.90;;;;;;5067499;28;38613;-71
2021/10/08 09:51:12;;;;;;;66.13;38.47;;;13.00;99.90;;;;;;5064201;28;37787;-72
2021/10/08 09:53:47;;;;;;;53.63;34.95;;;12.90;99.90;;;;;;5082661;28;39472;-71
2021/10/08 09:56:35;;;;;;;57.10;38.22;;;13.00;99.90;;;;;;5079158;28;38616;-72
2021/10/08 09:59:03;;;;;;;55.85;35.88;;;13.30;99.90;;;;;;5072022;28;39287;-71
2021/10/08 10:01:35;;;;;;;53.75;35.88;;;13.40;99.90;;;;;;5068408;28;37776;-72
2021/10/08 10:04:02;;;;;;;61.03;35.90;;;13.60;99.90;;;;;;5080794;28;39575;-71
2021/10/08 10:06:28;;;;;;;52.33;35.03;;;13.60;99.90;;;;;;5082898;28;47323;-72
2021/10/08 10:08:55;;;;;;;58.55;36.47;;;13.70;99.90;;;;;;5080072;28;40187;-72
2021/10/08 10:11:26;;;;;;;53.53;34.05;;;13.80;99.90;;;;;;5073324;28;37784;-73
2021/10/08 10:13:57;;;;;;;57.63;34.92;;;13.90;99.90;;;;;;5062984;28;39097;-73
2021/10/08 10:16:29;;;;;;;56.17;34.90;;;13.90;99.90;;;;;;5077455;28;39729;-73
2021/10/08 10:18:56;;;;;;;;;;;14.10;99.90;;;;;;5076999;28;38000;-72
2021/10/08 10:21:24;;;;;;;49.92;31.70;;;14.30;99.90;;;;;;5059422;28;37870;-72
2021/10/08 10:23:53;;;;;;;53.22;34.88;;;14.60;99.90;;;;;;5075030;28;39874;-72
2021/10/08 10:26:20;;;;;;;45.95;30.17;;;14.80;99.90;;;;;;5060225;28;38934;-72
2021/10/08 10:28:47;;;;;;;42.20;29.38;;;14.90;99.90;;;;;;5068062;28;37540;-75
2021/10/08 10:31:14;;;;;;;43.83;29.15;;;15.10;99.90;;;;;;5078591;28;37468;-75
2021/10/08 10:33:42;;;;;;;43.17;28.80;;;15.20;99.90;;;;;;5065679;28;39911;-75
2021/10/08 10:36:25;;;;;;;46.80;29.20;;;15.20;99.90;;;;;;5073119;28;39295;-75
2021/10/08 10:38:51;;;;;;;46.88;30.70;;;15.40;99.90;;;;;;5079437;28;38774;-75
2021/10/08 10:41:17;;;;;;;47.33;31.65;;;15.40;99.90;;;;;;5087531;28;37463;-76
2021/10/08 10:43:47;;;;;;;41.92;28.75;;;15.40;99.90;;;;;;5066919;28;39361;-74
2021/10/08 10:46:41;;;;;;;42.95;30.20;;;15.30;99.90;;;;;;5060750;28;39126;-75
2021/10/08 10:51:59;;;;;;;47.67;29.98;;;15.40;99.90;;;;;;5083497;28;38184;-74
2021/10/08 10:54:37;;;;;;;45.88;31.40;;;15.40;99.90;;;;;;5086370;28;38829;-73
2021/10/08 10:57:08;;;;;;;44.70;29.02;;;15.50;99.90;;;;;;5087285;28;38474;-73
2021/10/08 10:59:38;;;;;;;46.22;31.38;;;15.60;99.90;;;;;;5069957;28;37459;-75
2021/10/08 11:04:36;;;;;;;45.55;29.98;;;15.80;99.90;;;;;;5070381;28;39186;-74
2021/10/08 11:07:13;;;;;;;45.75;31.40;;;16.00;99.90;;;;;;5078722;28;38136;-74
2021/10/08 11:10:01;;;;;;;42.40;29.75;;;16.30;99.90;;;;;;5070705;28;37147;-73
2021/10/08 11:12:35;;;;;;;44.63;30.08;;;16.30;99.90;;;;;;5064600;28;47379;-73
2021/10/08 11:15:19;;;;;;;51.30;31.30;;;16.50;99.90;;;;;;5056769;28;39170;-73
2021/10/08 11:17:53;;;;;;;45.67;30.27;;;16.60;99.90;;;;;;5056509;28;47470;-74
2021/10/08 11:20:31;;;;;;;47.53;32.38;;;16.70;99.90;;;;;;5067410;28;38862;-76
2021/10/08 11:23:22;;;;;;;45.83;30.98;;;16.70;99.90;;;;;;5055597;28;36884;-76
2021/10/08 11:25:51;;;;;;;49.05;32.78;;;16.80;99.90;;;;;;5075070;28;48505;-74
2021/10/08 11:28:17;;;;;;;47.50;30.42;;;16.70;99.90;;;;;;5064167;28;37469;-75
2021/10/08 11:30:49;;;;;;;52.85;32.72;;;16.70;99.90;;;;;;5073878;28;37063;-76
2021/10/08 11:33:15;;;;;;;43.88;30.15;;;16.70;99.90;;;;;;5074533;28;36173;-75
2021/10/08 11:35:41;;;;;;;45.88;31.42;;;16.70;99.90;;;;;;5067422;28;38001;-74
2021/10/08 11:38:07;;;;;;;46.33;31.33;;;16.80;99.90;;;;;;5082850;28;39168;-74
2021/10/08 11:40:42;;;;;;;47.45;32.17;;;17.20;99.90;;;;;;5080955;28;37866;-74
2021/10/08 11:43:24;;;;;;;44.30;30.50;;;17.30;99.90;;;;;;5066302;28;37273;-75
2021/10/08 11:45:54;;;;;;;48.03;30.80;;;17.40;99.90;;;;;;5065239;28;39260;-73
2021/10/08 11:48:24;;;;;;;45.65;30.15;;;17.50;99.90;;;;;;5085608;28;38307;-73
2021/10/08 11:51:03;;;;;;;43.60;29.90;;;17.70;99.90;;;;;;5074208;28;37492;-73
2021/10/08 11:53:52;;;;;;;40.58;29.08;;;17.80;99.90;;;;;;5074188;28;48643;-75
2021/10/08 11:56:33;;;;;;;46.05;31.25;;;17.80;99.90;;;;;;5082280;28;38970;-74
2021/10/08 11:58:59;;;;;;;46.58;30.77;;;17.70;99.90;;;;;;5082882;28;38352;-74
2021/10/08 12:01:26;;;;;;;39.25;28.35;;;17.60;99.90;;;;;;5082967;28;37640;-75
2021/10/08 12:03:53;;;;;;;42.95;30.40;;;17.60;99.90;;;;;;5065160;28;36444;-75
2021/10/08 12:06:23;;;;;;;45.75;31.08;;;17.70;99.90;;;;;;5069385;28;40253;-75
2021/10/08 12:08:50;;;;;;;44.28;30.15;;;17.50;99.90;;;;;;5085977;28;38490;-75
2021/10/08 12:11:18;;;;;;;50.85;31.73;;;17.30;99.90;;;;;;5064519;28;35818;-76
2021/10/08 12:13:50;;;;;;;44.17;30.08;;;17.40;99.90;;;;;;5083439;28;38421;-76
2021/10/08 12:16:19;;;;;;;46.38;30.95;;;17.70;99.90;;;;;;5059388;28;37698;-75
2021/10/08 12:18:52;;;;;;;48.55;30.50;;;17.70;99.90;;;;;;5067488;28;38387;-74
2021/10/08 12:21:22;;;;;;;43.78;29.98;;;17.90;99.90;;;;;;5060013;28;37978;-73
2021/10/08 12:23:58;;;;;;;41.05;29.13;;;18.10;99.90;;;;;;5085151;28;36881;-73
2021/10/08 12:26:25;;;;;;;42.20;28.65;;;18.00;99.90;;;;;;5065615;28;37954;-75
2021/10/08 12:28:53;;;;;;;37.63;26.10;;;18.00;99.90;;;;;;5064333;28;37692;-74
2021/10/08 12:31:20;;;;;;;37.97;27.85;;;17.90;99.90;;;;;;5064880;28;37984;-74
2021/10/08 12:33:48;;;;;;;40.35;26.77;;;18.00;99.90;;;;;;5082101;28;37521;-73
2021/10/08 12:36:21;;;;;;;37.65;26.63;;;18.20;99.90;;;;;;5079398;28;38946;-74
2021/10/08 12:39:04;;;;;;;37.00;24.90;;;18.30;99.90;;;;;;5061369;28;37459;-75
2021/10/08 12:41:33;;;;;;;;;;;18.30;99.90;;;;;;5082073;28;48868;-75
2021/10/08 12:44:19;;;;;;;35.58;24.65;;;18.00;99.90;;;;;;5080395;28;37673;-75
2021/10/08 12:47:12;;;;;;;38.65;25.65;;;17.70;99.90;;;;;;5061633;28;47460;-75